Back to Top

Language: 

My Weather Underground Personal Weather Station Historical Data with Graphs...

Delerius Weather Station Historical Data
Daily Summary for November 9, 2017 Units:  English    Metric   Both
« Previous Day
Next Day »
Daily Weekly Monthly Yearly Custom
  High: Low: Average:
Temperature: 56.5 °F 45.0 °F 50.6 °F
Dew Point: 50.7 °F 41.1 °F 45.3 °F
Humidity: 93 % 61 % 82 %
Wind Speed: 14.0 mph 0.0 mph 7.3 mph
Wind Gust: 23.0 mph - -
Wind:- - West
Pressure: 30.19 in 30.04 in -
Precipitation: 0.00 in    
Historical Graphs
 
 
Tabular Data for November 9, 2017
Time Temperature Dew Point Pressure Wind Wind Speed Wind Gust Humidity Rainfall Rate (Hourly) solar Conditions
00:04 45.0 °F 42.2 °F 30.15 in West 2.0 mph 5.0 mph 90 % 0.00 in 0 W/m2
00:09 45.7 °F 42.9 °F 30.16 in West 5.0 mph 7.0 mph 90 % 0.00 in 0 W/m2
00:14 46.0 °F 43.0 °F 30.15 in West 3.0 mph 7.0 mph 89 % 0.00 in 0 W/m2
00:19 46.6 °F 43.5 °F 30.15 in WSW 9.0 mph 16.0 mph 89 % 0.00 in 0 W/m2
00:24 47.1 °F 43.7 °F 30.15 in WSW 7.0 mph 11.0 mph 88 % 0.00 in 0 W/m2
00:29 47.5 °F 44.1 °F 30.15 in WSW 9.0 mph 15.0 mph 88 % 0.00 in 0 W/m2
00:34 47.7 °F 44.0 °F 30.14 in SW 7.0 mph 11.0 mph 87 % 0.00 in 0 W/m2
00:39 47.8 °F 44.2 °F 30.14 in SW 8.0 mph 11.0 mph 87 % 0.00 in 0 W/m2
00:44 47.8 °F 44.2 °F 30.14 in SW 7.0 mph 12.0 mph 87 % 0.00 in 0 W/m2
00:49 47.8 °F 44.2 °F 30.14 in SW 5.0 mph 8.0 mph 87 % 0.00 in 0 W/m2
00:54 47.8 °F 44.5 °F 30.14 in WSW 6.0 mph 9.0 mph 88 % 0.00 in 0 W/m2
00:59 48.0 °F 44.6 °F 30.14 in WSW 7.0 mph 11.0 mph 88 % 0.00 in 0 W/m2
01:04 48.0 °F 44.6 °F 30.14 in WSW 5.0 mph 8.0 mph 88 % 0.00 in 0 W/m2
01:09 48.4 °F 45.3 °F 30.13 in WSW 9.0 mph 15.0 mph 89 % 0.00 in 0 W/m2
01:14 48.6 °F 45.5 °F 30.13 in West 10.0 mph 14.0 mph 89 % 0.00 in 0 W/m2
01:19 48.7 °F 45.6 °F 30.13 in West 7.0 mph 11.0 mph 89 % 0.00 in 0 W/m2
01:24 48.7 °F 45.6 °F 30.13 in West 9.0 mph 15.0 mph 89 % 0.00 in 0 W/m2
01:29 48.7 °F 45.6 °F 30.12 in WSW 8.0 mph 12.0 mph 89 % 0.00 in 0 W/m2
01:34 48.7 °F 45.6 °F 30.12 in WSW 10.0 mph 14.0 mph 89 % 0.00 in 0 W/m2
01:39 48.7 °F 45.6 °F 30.12 in WSW 8.0 mph 16.0 mph 89 % 0.00 in 0 W/m2
01:44 48.7 °F 45.6 °F 30.12 in WSW 9.0 mph 12.0 mph 89 % 0.00 in 0 W/m2
01:49 48.7 °F 45.6 °F 30.12 in WSW 8.0 mph 18.0 mph 89 % 0.00 in 0 W/m2
01:55 48.7 °F 45.6 °F 30.12 in West 7.0 mph 12.0 mph 89 % 0.00 in 0 W/m2
02:00 48.7 °F 45.6 °F 30.12 in WSW 7.0 mph 10.0 mph 89 % 0.00 in 0 W/m2
02:05 48.7 °F 45.6 °F 30.12 in WSW 9.0 mph 13.0 mph 89 % 0.00 in 0 W/m2
02:10 48.9 °F 46.1 °F 30.12 in West 8.0 mph 12.0 mph 90 % 0.00 in 0 W/m2
02:15 49.1 °F 46.0 °F 30.12 in WSW 7.0 mph 12.0 mph 89 % 0.00 in 0 W/m2
02:20 49.1 °F 46.0 °F 30.11 in WSW 7.0 mph 9.0 mph 89 % 0.00 in 0 W/m2
02:26 48.9 °F 45.8 °F 30.11 in WSW 6.0 mph 11.0 mph 89 % 0.00 in 0 W/m2
02:31 48.9 °F 46.1 °F 30.12 in West 9.0 mph 13.0 mph 90 % 0.00 in 0 W/m2
02:36 49.3 °F 46.5 °F 30.12 in West 9.0 mph 14.0 mph 90 % 0.00 in 0 W/m2
02:41 49.5 °F 46.6 °F 30.12 in West 9.0 mph 14.0 mph 90 % 0.00 in 0 W/m2
02:46 49.6 °F 46.8 °F 30.11 in WSW 7.0 mph 14.0 mph 90 % 0.00 in 0 W/m2
02:51 49.6 °F 46.8 °F 30.11 in WSW 9.0 mph 15.0 mph 90 % 0.00 in 0 W/m2
02:56 49.6 °F 46.8 °F 30.10 in WSW 9.0 mph 14.0 mph 90 % 0.00 in 0 W/m2
03:01 49.8 °F 47.0 °F 30.11 in WSW 9.0 mph 16.0 mph 90 % 0.00 in 0 W/m2
03:06 49.8 °F 47.0 °F 30.11 in WSW 10.0 mph 15.0 mph 90 % 0.00 in 0 W/m2
03:11 50.0 °F 47.2 °F 30.11 in WSW 11.0 mph 18.0 mph 90 % 0.00 in 0 W/m2
03:17 50.2 °F 47.4 °F 30.10 in WSW 12.0 mph 20.0 mph 90 % 0.00 in 0 W/m2
03:19 50.2 °F 47.4 °F 30.10 in WSW 10.0 mph 20.0 mph 90 % 0.00 in 0 W/m2
03:22 50.2 °F 47.4 °F 30.10 in WSW 9.0 mph 15.0 mph 90 % 0.00 in 0 W/m2
03:23 50.2 °F 47.4 °F 30.10 in WSW 10.0 mph 15.0 mph 90 % 0.00 in 0 W/m2
03:28 50.2 °F 47.4 °F 30.10 in West 11.0 mph 20.0 mph 90 % 0.00 in 0 W/m2
03:29 50.0 °F 47.2 °F 30.10 in West 12.0 mph 20.0 mph 90 % 0.00 in 0 W/m2
03:33 49.8 °F 47.3 °F 30.10 in West 11.0 mph 16.0 mph 91 % 0.00 in 0 W/m2
03:38 49.6 °F 47.1 °F 30.10 in West 10.0 mph 16.0 mph 91 % 0.00 in 0 W/m2
03:40 49.6 °F 47.1 °F 30.10 in West 8.0 mph 12.0 mph 91 % 0.00 in 0 W/m2
03:43 49.6 °F 47.1 °F 30.11 in West 9.0 mph 13.0 mph 91 % 0.00 in 0 W/m2
03:48 49.5 °F 46.9 °F 30.10 in West 9.0 mph 13.0 mph 91 % 0.00 in 0 W/m2
03:53 49.6 °F 47.4 °F 30.11 in West 11.0 mph 16.0 mph 92 % 0.00 in 0 W/m2
03:58 49.6 °F 47.4 °F 30.10 in WSW 14.0 mph 21.0 mph 92 % 0.00 in 0 W/m2
04:03 49.8 °F 47.6 °F 30.09 in WSW 11.0 mph 16.0 mph 92 % 0.00 in 0 W/m2
04:08 49.8 °F 47.3 °F 30.10 in West 11.0 mph 18.0 mph 91 % 0.00 in 0 W/m2
04:13 50.0 °F 47.5 °F 30.10 in West 9.0 mph 15.0 mph 91 % 0.00 in 0 W/m2
04:18 50.2 °F 47.7 °F 30.10 in West 9.0 mph 15.0 mph 91 % 0.00 in 0 W/m2
04:28 50.4 °F 47.8 °F 30.10 in WSW 7.0 mph 11.0 mph 91 % 0.00 in 0 W/m2
04:33 50.4 °F 47.8 °F 30.10 in WSW 6.0 mph 12.0 mph 91 % 0.00 in 0 W/m2
04:38 50.5 °F 48.0 °F 30.10 in WSW 9.0 mph 15.0 mph 91 % 0.00 in 0 W/m2
04:43 50.7 °F 48.2 °F 30.09 in West 9.0 mph 14.0 mph 91 % 0.00 in 0 W/m2
04:48 50.7 °F 48.2 °F 30.10 in West 10.0 mph 14.0 mph 91 % 0.00 in 0 W/m2
04:54 50.7 °F 48.2 °F 30.10 in West 7.0 mph 12.0 mph 91 % 0.00 in 0 W/m2
04:59 50.7 °F 48.2 °F 30.10 in West 6.0 mph 10.0 mph 91 % 0.00 in 0 W/m2
05:04 50.7 °F 48.2 °F 30.10 in West 6.0 mph 11.0 mph 91 % 0.00 in 0 W/m2
05:09 50.7 °F 48.2 °F 30.09 in West 7.0 mph 12.0 mph 91 % 0.00 in 0 W/m2
05:14 50.7 °F 48.2 °F 30.09 in West 8.0 mph 11.0 mph 91 % 0.00 in 0 W/m2
05:19 50.7 °F 48.2 °F 30.08 in West 9.0 mph 13.0 mph 91 % 0.00 in 0 W/m2
05:24 50.7 °F 48.2 °F 30.09 in West 7.0 mph 13.0 mph 91 % 0.00 in 0 W/m2
05:29 50.7 °F 48.5 °F 30.09 in West 7.0 mph 12.0 mph 92 % 0.00 in 0 W/m2
05:34 50.7 °F 48.5 °F 30.08 in West 9.0 mph 19.0 mph 92 % 0.00 in 0 W/m2
05:35 50.7 °F 48.5 °F 30.09 in West 9.0 mph 19.0 mph 92 % 0.00 in 0 W/m2
05:40 50.9 °F 48.7 °F 30.08 in West 10.0 mph 15.0 mph 92 % 0.00 in 0 W/m2
05:45 51.1 °F 48.8 °F 30.08 in West 7.0 mph 16.0 mph 92 % 0.00 in 0 W/m2
05:50 51.1 °F 48.8 °F 30.08 in West 12.0 mph 19.0 mph 92 % 0.00 in 0 W/m2
05:55 51.3 °F 49.0 °F 30.08 in West 9.0 mph 15.0 mph 92 % 0.00 in 0 W/m2
06:00 51.3 °F 49.0 °F 30.09 in West 9.0 mph 15.0 mph 92 % 0.00 in 0 W/m2
06:05 51.3 °F 49.0 °F 30.09 in West 8.0 mph 13.0 mph 92 % 0.00 in 0 W/m2
06:10 51.3 °F 49.0 °F 30.09 in West 6.0 mph 10.0 mph 92 % 0.00 in 0 W/m2
06:15 51.3 °F 49.0 °F 30.09 in West 6.0 mph 10.0 mph 92 % 0.00 in 0 W/m2
06:20 51.4 °F 49.2 °F 30.09 in WSW 6.0 mph 11.0 mph 92 % 0.00 in 0 W/m2
06:25 51.4 °F 49.2 °F 30.09 in WSW 7.0 mph 10.0 mph 92 % 0.00 in 0 W/m2
06:30 51.4 °F 49.2 °F 30.09 in WSW 6.0 mph 9.0 mph 92 % 0.00 in 0 W/m2
06:35 51.4 °F 49.2 °F 30.09 in SW 6.0 mph 11.0 mph 92 % 0.00 in 0 W/m2
06:40 51.6 °F 49.4 °F 30.10 in WSW 6.0 mph 9.0 mph 92 % 0.00 in 0 W/m2
06:45 51.4 °F 49.2 °F 30.09 in SW 5.0 mph 8.0 mph 92 % 0.00 in 0 W/m2
06:50 51.6 °F 49.4 °F 30.09 in WSW 5.0 mph 8.0 mph 92 % 0.00 in 0 W/m2
06:55 51.6 °F 49.4 °F 30.09 in West 5.0 mph 7.0 mph 92 % 0.00 in 0 W/m2
07:00 51.6 °F 49.7 °F 30.09 in WSW 6.0 mph 9.0 mph 93 % 0.00 in 0 W/m2
07:05 51.6 °F 49.7 °F 30.09 in West 7.0 mph 9.0 mph 93 % 0.00 in 0 W/m2
07:10 51.8 °F 49.8 °F 30.09 in West 6.0 mph 13.0 mph 93 % 0.00 in 0 W/m2
07:15 52.0 °F 50.0 °F 30.09 in WSW 4.0 mph 7.0 mph 93 % 0.00 in 0 W/m2
07:20 52.2 °F 49.9 °F 30.09 in SW 4.0 mph 7.0 mph 92 % 0.00 in 0 W/m2
07:25 52.0 °F 49.7 °F 30.09 in WSW 6.0 mph 9.0 mph 92 % 0.00 in 0 W/m2
07:30 52.2 °F 49.9 °F 30.09 in WSW 5.0 mph 9.0 mph 92 % 0.00 in 0 W/m2
07:35 52.2 °F 49.9 °F 30.10 in West 1.0 mph 4.0 mph 92 % 0.00 in 0 W/m2
07:40 52.2 °F 49.9 °F 30.10 in West 5.0 mph 11.0 mph 92 % 0.00 in 5 W/m2
07:45 52.3 °F 50.1 °F 30.10 in West 7.0 mph 11.0 mph 92 % 0.00 in 7 W/m2
07:50 52.5 °F 50.3 °F 30.10 in West 2.0 mph 5.0 mph 92 % 0.00 in 11 W/m2
07:55 52.7 °F 50.1 °F 30.10 in WNW 7.0 mph 12.0 mph 91 % 0.00 in 12 W/m2
08:00 52.9 °F 50.3 °F 30.10 in West 7.0 mph 10.0 mph 91 % 0.00 in 14 W/m2
08:05 53.1 °F 50.2 °F 30.10 in WSW 3.0 mph 6.0 mph 90 % 0.00 in 18 W/m2
08:10 53.2 °F 50.4 °F 30.10 in WNW 6.0 mph 10.0 mph 90 % 0.00 in 23 W/m2
08:15 53.2 °F 50.4 °F 30.10 in West 4.0 mph 8.0 mph 90 % 0.00 in 32 W/m2
08:21 53.4 °F 50.3 °F 30.10 in WSW 8.0 mph 19.0 mph 89 % 0.00 in 28 W/m2
08:26 53.8 °F 50.6 °F 30.10 in West 9.0 mph 14.0 mph 89 % 0.00 in 28 W/m2
08:31 54.0 °F 50.5 °F 30.10 in WSW 6.0 mph 10.0 mph 88 % 0.00 in 25 W/m2
08:36 54.0 °F 50.5 °F 30.10 in West 7.0 mph 10.0 mph 88 % 0.00 in 19 W/m2
08:41 54.1 °F 50.7 °F 30.11 in SW 5.0 mph 10.0 mph 88 % 0.00 in 26 W/m2
08:46 54.1 °F 50.7 °F 30.11 in WSW 8.0 mph 13.0 mph 88 % 0.00 in 23 W/m2
08:51 54.1 °F 50.7 °F 30.11 in West 9.0 mph 13.0 mph 88 % 0.00 in 37 W/m2
08:56 54.1 °F 50.4 °F 30.11 in West 10.0 mph 18.0 mph 87 % 0.00 in 30 W/m2
09:01 54.3 °F 50.5 °F 30.11 in West 11.0 mph 21.0 mph 87 % 0.00 in 37 W/m2
09:06 54.3 °F 50.5 °F 30.11 in West 4.0 mph 11.0 mph 87 % 0.00 in 39 W/m2
09:11 54.3 °F 50.5 °F 30.11 in West 7.0 mph 12.0 mph 87 % 0.00 in 56 W/m2
09:16 54.3 °F 50.5 °F 30.11 in WNW 8.0 mph 13.0 mph 87 % 0.00 in 83 W/m2
09:21 54.3 °F 50.2 °F 30.10 in West 10.0 mph 15.0 mph 86 % 0.00 in 95 W/m2
09:26 54.5 °F 50.4 °F 30.10 in WNW 10.0 mph 18.0 mph 86 % 0.00 in 98 W/m2
09:31 54.5 °F 50.4 °F 30.10 in WNW 10.0 mph 15.0 mph 86 % 0.00 in 97 W/m2
09:36 54.7 °F 50.6 °F 30.11 in West 11.0 mph 21.0 mph 86 % 0.00 in 63 W/m2
09:41 54.7 °F 50.3 °F 30.11 in WNW 12.0 mph 19.0 mph 85 % 0.00 in 60 W/m2
09:46 54.7 °F 50.3 °F 30.11 in WNW 13.0 mph 19.0 mph 85 % 0.00 in 97 W/m2
09:51 54.7 °F 49.9 °F 30.12 in WNW 13.0 mph 23.0 mph 84 % 0.00 in 79 W/m2
09:56 54.7 °F 49.9 °F 30.12 in WNW 9.0 mph 13.0 mph 84 % 0.00 in 56 W/m2
10:01 54.7 °F 49.9 °F 30.12 in WNW 10.0 mph 16.0 mph 84 % 0.00 in 39 W/m2
10:06 54.7 °F 50.3 °F 30.12 in WNW 9.0 mph 14.0 mph 85 % 0.00 in 32 W/m2
10:11 54.5 °F 50.1 °F 30.13 in WNW 10.0 mph 16.0 mph 85 % 0.00 in 49 W/m2
10:16 54.3 °F 49.9 °F 30.13 in WNW 11.0 mph 19.0 mph 85 % 0.00 in 49 W/m2
10:21 54.1 °F 49.4 °F 30.14 in WNW 11.0 mph 18.0 mph 84 % 0.00 in 100 W/m2
10:26 54.1 °F 49.4 °F 30.14 in WNW 8.0 mph 11.0 mph 84 % 0.00 in 104 W/m2
10:31 54.1 °F 49.4 °F 30.14 in WNW 9.0 mph 14.0 mph 84 % 0.00 in 60 W/m2
10:37 54.0 °F 49.2 °F 30.14 in NW 10.0 mph 20.0 mph 84 % 0.00 in 65 W/m2
10:42 54.0 °F 49.2 °F 30.14 in NW 6.0 mph 14.0 mph 84 % 0.00 in 93 W/m2
11:13 53.4 °F 46.4 °F 30.14 in NNW 7.0 mph 9.0 mph 77 % 0.00 in 128 W/m2
11:18 53.2 °F 46.2 °F 30.14 in NNW 5.0 mph 8.0 mph 77 % 0.00 in 135 W/m2
11:23 53.2 °F 46.2 °F 30.14 in NNW 6.0 mph 14.0 mph 77 % 0.00 in 190 W/m2
11:28 53.4 °F 46.0 °F 30.14 in NNW 6.0 mph 12.0 mph 76 % 0.00 in 287 W/m2
11:33 53.6 °F 45.9 °F 30.14 in North 6.0 mph 11.0 mph 75 % 0.00 in 179 W/m2
11:38 53.8 °F 46.0 °F 30.14 in NNW 2.0 mph 6.0 mph 75 % 0.00 in 274 W/m2
11:40 53.8 °F 46.0 °F 30.14 in NNW 3.0 mph 6.0 mph 75 % 0.00 in 216 W/m2
11:45 54.1 °F 46.4 °F 30.14 in WNW 3.0 mph 7.0 mph 75 % 0.00 in 330 W/m2
11:50 54.7 °F 46.6 °F 30.14 in NW 1.0 mph 7.0 mph 74 % 0.00 in 338 W/m2
11:55 55.0 °F 46.5 °F 30.14 in WSW 3.0 mph 5.0 mph 73 % 0.00 in 301 W/m2
12:00 55.2 °F 46.0 °F 30.14 in North 5.0 mph 13.0 mph 71 % 0.00 in 179 W/m2
12:05 54.9 °F 45.3 °F 30.15 in NW 9.0 mph 15.0 mph 70 % 0.00 in 292 W/m2
12:10 54.9 °F 45.3 °F 30.15 in NW 6.0 mph 11.0 mph 70 % 0.00 in 279 W/m2
12:15 55.0 °F 45.8 °F 30.15 in NW 3.0 mph 8.0 mph 71 % 0.00 in 343 W/m2
12:20 55.4 °F 45.8 °F 30.15 in NW 5.0 mph 9.0 mph 70 % 0.00 in 269 W/m2
12:25 55.4 °F 45.0 °F 30.14 in NW 7.0 mph 13.0 mph 68 % 0.00 in 265 W/m2
12:30 55.6 °F 45.2 °F 30.15 in NW 6.0 mph 15.0 mph 68 % 0.00 in 364 W/m2
12:35 55.6 °F 44.8 °F 30.15 in WNW 10.0 mph 18.0 mph 67 % 0.00 in 352 W/m2
12:40 55.8 °F 45.0 °F 30.15 in NW 10.0 mph 16.0 mph 67 % 0.00 in 359 W/m2
12:45 55.9 °F 45.1 °F 30.15 in NW 11.0 mph 21.0 mph 67 % 0.00 in 362 W/m2
12:50 55.8 °F 45.0 °F 30.15 in NW 11.0 mph 16.0 mph 67 % 0.00 in 262 W/m2
12:55 55.8 °F 45.4 °F 30.15 in NW 9.0 mph 13.0 mph 68 % 0.00 in 373 W/m2
13:00 55.9 °F 45.9 °F 30.15 in WNW 4.0 mph 8.0 mph 69 % 0.00 in 332 W/m2
13:05 56.1 °F 45.7 °F 30.15 in WNW 5.0 mph 12.0 mph 68 % 0.00 in 309 W/m2
13:10 56.3 °F 45.5 °F 30.15 in NW 7.0 mph 13.0 mph 67 % 0.00 in 121 W/m2
13:15 55.9 °F 45.1 °F 30.15 in NNW 7.0 mph 15.0 mph 67 % 0.00 in 141 W/m2
13:20 55.8 °F 45.7 °F 30.16 in WNW 8.0 mph 14.0 mph 69 % 0.00 in 299 W/m2
13:25 55.9 °F 45.9 °F 30.16 in NNW 4.0 mph 9.0 mph 69 % 0.00 in 334 W/m2
13:30 56.1 °F 45.7 °F 30.16 in WNW 8.0 mph 13.0 mph 68 % 0.00 in 399 W/m2
13:35 56.5 °F 45.3 °F 30.16 in NW 13.0 mph 19.0 mph 66 % 0.00 in 279 W/m2
13:40 56.1 °F 44.9 °F 30.16 in NW 12.0 mph 20.0 mph 66 % 0.00 in 186 W/m2
13:45 55.8 °F 44.2 °F 30.16 in NW 10.0 mph 18.0 mph 65 % 0.00 in 214 W/m2
13:50 55.4 °F 42.6 °F 30.16 in NW 9.0 mph 14.0 mph 62 % 0.00 in 220 W/m2
13:55 55.2 °F 42.4 °F 30.16 in NW 7.0 mph 14.0 mph 62 % 0.00 in 257 W/m2
14:00 55.2 °F 42.4 °F 30.15 in NW 7.0 mph 12.0 mph 62 % 0.00 in 207 W/m2
14:05 55.0 °F 42.3 °F 30.15 in NW 6.0 mph 10.0 mph 62 % 0.00 in 260 W/m2
14:10 55.0 °F 42.3 °F 30.14 in WNW 7.0 mph 12.0 mph 62 % 0.00 in 234 W/m2
14:15 55.0 °F 41.8 °F 30.16 in WNW 7.0 mph 11.0 mph 61 % 0.00 in 209 W/m2
14:20 55.0 °F 42.3 °F 30.16 in WNW 8.0 mph 13.0 mph 62 % 0.00 in 165 W/m2
14:25 54.9 °F 42.1 °F 30.16 in WNW 12.0 mph 19.0 mph 62 % 0.00 in 105 W/m2
14:30 54.3 °F 42.0 °F 30.16 in WNW 6.0 mph 12.0 mph 63 % 0.00 in 90 W/m2
14:35 54.3 °F 42.4 °F 30.16 in WNW 6.0 mph 12.0 mph 64 % 0.00 in 67 W/m2
14:40 54.0 °F 42.1 °F 30.15 in WNW 8.0 mph 15.0 mph 64 % 0.00 in 76 W/m2
14:45 53.8 °F 42.3 °F 30.16 in WNW 7.0 mph 13.0 mph 65 % 0.00 in 60 W/m2
14:50 53.4 °F 42.3 °F 30.16 in WNW 8.0 mph 14.0 mph 66 % 0.00 in 47 W/m2
14:55 53.1 °F 42.4 °F 30.16 in WNW 9.0 mph 14.0 mph 67 % 0.00 in 39 W/m2
15:00 52.9 °F 43.0 °F 30.16 in WNW 7.0 mph 11.0 mph 69 % 0.00 in 30 W/m2
15:05 52.7 °F 43.2 °F 30.17 in NW 8.0 mph 12.0 mph 70 % 0.00 in 44 W/m2
15:10 52.5 °F 43.4 °F 30.17 in WNW 9.0 mph 14.0 mph 71 % 0.00 in 46 W/m2
15:15 52.3 °F 43.6 °F 30.17 in NW 10.0 mph 18.0 mph 72 % 0.00 in 28 W/m2
15:20 52.2 °F 44.1 °F 30.17 in WNW 8.0 mph 12.0 mph 74 % 0.00 in 23 W/m2
15:25 52.0 °F 43.9 °F 30.17 in WNW 9.0 mph 13.0 mph 74 % 0.00 in 25 W/m2
15:30 52.0 °F 44.3 °F 30.17 in WNW 9.0 mph 15.0 mph 75 % 0.00 in 32 W/m2
15:35 51.8 °F 44.1 °F 30.17 in West 8.0 mph 11.0 mph 75 % 0.00 in 26 W/m2
15:40 51.6 °F 44.3 °F 30.17 in West 6.0 mph 9.0 mph 76 % 0.00 in 28 W/m2
15:45 51.4 °F 44.1 °F 30.16 in West 6.0 mph 10.0 mph 76 % 0.00 in 25 W/m2
15:50 51.3 °F 44.0 °F 30.17 in NW 5.0 mph 9.0 mph 76 % 0.00 in 19 W/m2
15:55 51.1 °F 44.1 °F 30.18 in WNW 10.0 mph 22.0 mph 77 % 0.00 in 16 W/m2
16:01 50.7 °F 43.8 °F 30.19 in WNW 10.0 mph 16.0 mph 77 % 0.00 in 9 W/m2
16:06 50.7 °F 43.8 °F 30.18 in WNW 10.0 mph 14.0 mph 77 % 0.00 in 7 W/m2
16:10 50.7 °F 43.8 °F 30.17 in West 12.0 mph 20.0 mph 77 % 0.00 in 5 W/m2
16:16 50.5 °F 43.6 °F 30.17 in WNW 11.0 mph 14.0 mph 77 % 0.00 in 0 W/m2
16:21 50.5 °F 43.6 °F 30.16 in West 7.0 mph 11.0 mph 77 % 0.00 in 0 W/m2
16:26 50.4 °F 43.4 °F 30.16 in WNW 2.0 mph 6.0 mph 77 % 0.00 in 5 W/m2
16:31 50.2 °F 43.6 °F 30.16 in WNW 1.0 mph 4.0 mph 78 % 0.00 in 0 W/m2
16:36 49.8 °F 43.2 °F 30.16 in Calm   2.0 mph 78 % 0.00 in 0 W/m2
16:41 49.6 °F 43.4 °F 30.17 in WNW 3.0 mph 5.0 mph 79 % 0.00 in 0 W/m2
16:46 49.5 °F 43.2 °F 30.17 in WNW 5.0 mph 8.0 mph 79 % 0.00 in 0 W/m2
16:51 49.3 °F 43.0 °F 30.17 in West 6.0 mph 9.0 mph 79 % 0.00 in 0 W/m2
16:56 49.1 °F 43.2 °F 30.17 in WNW 7.0 mph 12.0 mph 80 % 0.00 in 0 W/m2
17:01 48.7 °F 42.8 °F 30.17 in WNW 8.0 mph 11.0 mph 80 % 0.00 in 0 W/m2
17:06 48.7 °F 43.2 °F 30.16 in West 7.0 mph 12.0 mph 81 % 0.00 in 0 W/m2
17:11 48.6 °F 43.0 °F 30.17 in West 7.0 mph 12.0 mph 81 % 0.00 in 0 W/m2
17:16 48.6 °F 43.0 °F 30.17 in WNW 4.0 mph 10.0 mph 81 % 0.00 in 0 W/m2
17:21 48.4 °F 43.1 °F 30.17 in WNW 6.0 mph 12.0 mph 82 % 0.00 in 0 W/m2
17:26 48.4 °F 43.1 °F 30.17 in West 6.0 mph 11.0 mph 82 % 0.00 in 0 W/m2
17:31 48.4 °F 43.1 °F 30.17 in WSW 3.0 mph 6.0 mph 82 % 0.00 in 0 W/m2
17:36 48.4 °F 43.1 °F 30.17 in WSW 3.0 mph 6.0 mph 82 % 0.00 in 0 W/m2
17:41 48.0 °F 42.8 °F 30.17 in West 5.0 mph 9.0 mph 82 % 0.00 in 0 W/m2
17:46 48.0 °F 42.8 °F 30.17 in West 5.0 mph 9.0 mph 82 % 0.00 in 0 W/m2
17:51 47.8 °F 42.6 °F 30.17 in WSW 7.0 mph 10.0 mph 82 % 0.00 in 0 W/m2
17:56 47.8 °F 42.6 °F 30.17 in West 5.0 mph 11.0 mph 82 % 0.00 in 0 W/m2
18:01 47.8 °F 42.6 °F 30.17 in WSW 5.0 mph 7.0 mph 82 % 0.00 in 0 W/m2
18:06 47.8 °F 42.6 °F 30.17 in West 5.0 mph 9.0 mph 82 % 0.00 in 0 W/m2
18:07 47.8 °F 42.6 °F 30.17 in West 4.0 mph 8.0 mph 82 % 0.00 in 0 W/m2
18:12 47.8 °F 42.6 °F 30.17 in West 4.0 mph 7.0 mph 82 % 0.00 in 0 W/m2
18:17 47.7 °F 42.4 °F 30.16 in West 5.0 mph 8.0 mph 82 % 0.00 in 0 W/m2
18:22 47.5 °F 42.3 °F 30.17 in WNW 3.0 mph 6.0 mph 82 % 0.00 in 0 W/m2
18:27 47.5 °F 42.3 °F 30.16 in West 3.0 mph 7.0 mph 82 % 0.00 in 0 W/m2
18:32 47.3 °F 42.1 °F 30.16 in WNW 2.0 mph 5.0 mph 82 % 0.00 in 0 W/m2
18:37 47.1 °F 41.9 °F 30.17 in West 2.0 mph 4.0 mph 82 % 0.00 in 0 W/m2
18:42 46.9 °F 41.7 °F 30.18 in WNW 1.0 mph 5.0 mph 82 % 0.00 in 0 W/m2
18:44 46.8 °F 41.6 °F 30.18 in WNW 2.0 mph 7.0 mph 82 % 0.00 in 0 W/m2
18:49 46.8 °F 41.9 °F 30.18 in West 2.0 mph 4.0 mph 83 % 0.00 in 0 W/m2
18:50 46.8 °F 41.6 °F 30.18 in West 1.0 mph 4.0 mph 82 % 0.00 in 0 W/m2
18:55 46.6 °F 41.4 °F 30.18 in West 1.0 mph 4.0 mph 82 % 0.00 in 0 W/m2
18:56 46.6 °F 41.4 °F 30.18 in West 2.0 mph 4.0 mph 82 % 0.00 in 0 W/m2
19:01 46.6 °F 41.4 °F 30.18 in WSW 6.0 mph 10.0 mph 82 % 0.00 in 0 W/m2
19:06 46.6 °F 41.4 °F 30.18 in WNW 5.0 mph 9.0 mph 82 % 0.00 in 0 W/m2
19:11 46.6 °F 41.4 °F 30.17 in WNW 6.0 mph 8.0 mph 82 % 0.00 in 0 W/m2
19:16 46.6 °F 41.7 °F 30.17 in WNW 7.0 mph 11.0 mph 83 % 0.00 in 0 W/m2
19:21 46.8 °F 41.9 °F 30.16 in West 8.0 mph 11.0 mph 83 % 0.00 in 0 W/m2
19:26 46.8 °F 41.9 °F 30.16 in West 9.0 mph 14.0 mph 83 % 0.00 in 0 W/m2
19:31 46.8 °F 41.6 °F 30.15 in WNW 7.0 mph 9.0 mph 82 % 0.00 in 0 W/m2
19:36 46.8 °F 41.6 °F 30.15 in West 7.0 mph 10.0 mph 82 % 0.00 in 0 W/m2
19:41 46.8 °F 41.2 °F 30.15 in West 7.0 mph 11.0 mph 81 % 0.00 in 0 W/m2
19:47 46.9 °F 41.4 °F 30.15 in West 6.0 mph 9.0 mph 81 % 0.00 in 0 W/m2
19:52 46.9 °F 41.1 °F 30.16 in West 4.0 mph 8.0 mph 80 % 0.00 in 0 W/m2
19:57 46.9 °F 41.1 °F 30.15 in WNW 7.0 mph 12.0 mph 80 % 0.00 in 0 W/m2
20:02 46.9 °F 41.1 °F 30.16 in West 7.0 mph 11.0 mph 80 % 0.00 in 0 W/m2
20:07 46.9 °F 41.1 °F 30.16 in West 8.0 mph 11.0 mph 80 % 0.00 in 0 W/m2
20:12 47.1 °F 41.3 °F 30.16 in WNW 8.0 mph 11.0 mph 80 % 0.00 in 0 W/m2
20:17 47.1 °F 41.3 °F 30.16 in West 7.0 mph 11.0 mph 80 % 0.00 in 0 W/m2
20:22 47.3 °F 41.4 °F 30.15 in West 8.0 mph 12.0 mph 80 % 0.00 in 0 W/m2
20:27 47.5 °F 41.6 °F 30.15 in WNW 10.0 mph 15.0 mph 80 % 0.00 in 0 W/m2
20:32 47.7 °F 41.8 °F 30.15 in WNW 8.0 mph 12.0 mph 80 % 0.00 in 0 W/m2
20:37 47.7 °F 41.8 °F 30.15 in WNW 9.0 mph 12.0 mph 80 % 0.00 in 0 W/m2
20:42 47.8 °F 42.0 °F 30.14 in West 8.0 mph 13.0 mph 80 % 0.00 in 0 W/m2
20:47 47.8 °F 42.0 °F 30.14 in WNW 9.0 mph 15.0 mph 80 % 0.00 in 0 W/m2
20:52 47.8 °F 41.6 °F 30.14 in WNW 9.0 mph 16.0 mph 79 % 0.00 in 0 W/m2
20:57 48.0 °F 41.8 °F 30.14 in WNW 10.0 mph 16.0 mph 79 % 0.00 in 0 W/m2
21:02 48.2 °F 42.0 °F 30.13 in WNW 8.0 mph 14.0 mph 79 % 0.00 in 0 W/m2
21:07 48.2 °F 42.0 °F 30.13 in WNW 9.0 mph 14.0 mph 79 % 0.00 in 0 W/m2
21:12 48.4 °F 42.2 °F 30.13 in WNW 8.0 mph 13.0 mph 79 % 0.00 in 0 W/m2
21:17 48.4 °F 42.2 °F 30.12 in West 11.0 mph 15.0 mph 79 % 0.00 in 0 W/m2
21:22 48.4 °F 42.2 °F 30.12 in WNW 10.0 mph 16.0 mph 79 % 0.00 in 0 W/m2
21:27 48.4 °F 42.2 °F 30.11 in WNW 12.0 mph 15.0 mph 79 % 0.00 in 0 W/m2
21:32 48.4 °F 42.2 °F 30.11 in WNW 9.0 mph 12.0 mph 79 % 0.00 in 0 W/m2
21:37 48.4 °F 42.2 °F 30.11 in WNW 9.0 mph 15.0 mph 79 % 0.00 in 0 W/m2
21:42 48.4 °F 42.2 °F 30.11 in WNW 8.0 mph 13.0 mph 79 % 0.00 in 0 W/m2
21:47 48.4 °F 42.2 °F 30.11 in WNW 9.0 mph 13.0 mph 79 % 0.00 in 0 W/m2
21:52 48.4 °F 42.2 °F 30.10 in WNW 7.0 mph 10.0 mph 79 % 0.00 in 0 W/m2
21:57 48.4 °F 42.2 °F 30.10 in West 6.0 mph 13.0 mph 79 % 0.00 in 0 W/m2
22:02 48.2 °F 42.0 °F 30.10 in West 4.0 mph 6.0 mph 79 % 0.00 in 0 W/m2
22:07 48.2 °F 42.0 °F 30.10 in SW 5.0 mph 8.0 mph 79 % 0.00 in 0 W/m2
22:12 48.0 °F 41.5 °F 30.10 in WSW 8.0 mph 11.0 mph 78 % 0.00 in 0 W/m2
22:17 48.0 °F 41.8 °F 30.09 in WSW 6.0 mph 9.0 mph 79 % 0.00 in 0 W/m2
22:22 47.8 °F 41.6 °F 30.09 in WSW 7.0 mph 14.0 mph 79 % 0.00 in 0 W/m2
22:27 47.8 °F 41.6 °F 30.09 in WSW 6.0 mph 9.0 mph 79 % 0.00 in 0 W/m2
22:32 47.7 °F 41.8 °F 30.09 in SW 5.0 mph 8.0 mph 80 % 0.00 in 0 W/m2
22:37 47.7 °F 41.8 °F 30.09 in West 2.0 mph 5.0 mph 80 % 0.00 in 0 W/m2
22:42 47.7 °F 41.8 °F 30.09 in Calm   3.0 mph 80 % 0.00 in 0 W/m2
22:47 47.7 °F 42.1 °F 30.09 in West 7.0 mph 15.0 mph 81 % 0.00 in 0 W/m2
22:52 47.8 °F 42.3 °F 30.08 in WSW 13.0 mph 20.0 mph 81 % 0.00 in 0 W/m2
22:58 47.8 °F 42.3 °F 30.08 in West 11.0 mph 16.0 mph 81 % 0.00 in 0 W/m2
23:03 47.8 °F 42.6 °F 30.07 in West 10.0 mph 18.0 mph 82 % 0.00 in 0 W/m2
23:08 47.7 °F 42.8 °F 30.07 in West 7.0 mph 12.0 mph 83 % 0.00 in 0 W/m2
23:13 47.7 °F 42.8 °F 30.07 in West 9.0 mph 18.0 mph 83 % 0.00 in 0 W/m2
23:18 47.7 °F 42.8 °F 30.06 in West 12.0 mph 21.0 mph 83 % 0.00 in 0 W/m2
23:23 47.7 °F 42.8 °F 30.06 in West 11.0 mph 15.0 mph 83 % 0.00 in 0 W/m2
23:28 47.7 °F 42.8 °F 30.06 in West 9.0 mph 18.0 mph 83 % 0.00 in 0 W/m2
23:33 47.5 °F 42.6 °F 30.05 in West 7.0 mph 13.0 mph 83 % 0.00 in 0 W/m2
23:38 47.5 °F 42.6 °F 30.06 in WSW 10.0 mph 15.0 mph 83 % 0.00 in 0 W/m2
23:43 47.7 °F 42.8 °F 30.06 in West 7.0 mph 13.0 mph 83 % 0.00 in 0 W/m2
23:48 47.7 °F 42.4 °F 30.05 in West 11.0 mph 18.0 mph 82 % 0.00 in 0 W/m2
23:53 47.8 °F 42.6 °F 30.05 in WSW 10.0 mph 14.0 mph 82 % 0.00 in 0 W/m2
23:58 47.8 °F 42.6 °F 30.04 in WSW 9.0 mph 12.0 mph 82 % 0.00 in 0 W/m2
Delerius-Weather
Compliments of Weather Underground - 2.25 mb

Data updates at regular intervals.